Time;durP1;ratioP1;P1;durP2;ratioP2;P2;SDS_P1;SDS_P2;PMS_P1;PMS_P2;Temp;Humidity;BMP_temperature;BMP_pressure;BME280_temperature;BME280_humidity;BME280_pressure;Samples;Min_cycle;Max_cycle;Signal;HPM_P1;HPM_P2
2022/04/20 00:00:56;;;;;;;1.90;1.80;;;;;;;;;;12285456;29;20031;-78
2022/04/20 00:06:57;;;;;;;2.38;1.98;;;;;;;;;;12302996;29;20039;-77
2022/04/20 00:12:59;;;;;;;2.70;2.30;;;;;;;;;;12284168;29;20074;-78
2022/04/20 00:19:01;;;;;;;3.45;2.40;;;;;;;;;;12283961;29;20039;-78
2022/04/20 00:25:03;;;;;;;2.85;2.42;;;;;;;;;;12284231;29;20038;-78
2022/04/20 00:31:05;;;;;;;2.73;2.23;;;;;;;;;;12283797;29;20042;-78
2022/04/20 00:37:07;;;;;;;1.83;1.73;;;;;;;;;;12285405;28;20055;-78
2022/04/20 00:43:09;;;;;;;2.90;2.60;;;;;;;;;;12293180;29;20440;-78
2022/04/20 00:49:11;;;;;;;2.85;2.55;;;;;;;;;;12304763;28;20035;-78
2022/04/20 00:55:13;;;;;;;;;;;;;;;;;;12292316;29;20400;-78
2022/04/20 01:01:15;;;;;;;2.30;1.70;;;;;;;;;;12292266;29;19910;-78
2022/04/20 01:07:18;;;;;;;2.70;1.50;;;;;;;;;;12302844;28;20370;-77
2022/04/20 01:13:38;;;;;;;2.13;1.30;;;;;;;;;;12294834;29;20396;-77
2022/04/20 01:20:12;;;;;;;;;;;;;;;;;;12292259;29;20523;-78
2022/04/20 01:26:26;;;;;;;1.33;1.03;;;;;;;;;;12291601;29;19922;-78
2022/04/20 01:32:27;;;;;;;;;;;;;;;;;;12307745;28;20039;-78
2022/04/20 01:38:54;;;;;;;1.15;0.90;;;;;;;;;;12290034;29;19925;-78
2022/04/20 01:44:56;;;;;;;1.60;0.70;;;;;;;;;;12290090;29;20047;-78
2022/04/20 01:51:56;;;;;;;1.55;0.70;;;;;;;;;;12289249;29;20038;-78
2022/04/20 01:57:57;;;;;;;1.90;0.55;;;;;;;;;;12305167;29;20047;-78
2022/04/20 02:04:28;;;;;;;0.50;0.40;;;;;;;;;;12254946;29;20397;-77
2022/04/20 02:10:30;;;;;;;1.10;0.50;;;;;;;;;;12300388;29;20050;-78
2022/04/20 02:16:32;;;;;;;0.57;0.37;;;;;;;;;;12288233;29;20055;-78
2022/04/20 02:22:52;;;;;;;1.38;0.40;;;;;;;;;;12305284;29;20047;-77
2022/04/20 02:28:54;;;;;;;2.15;0.30;;;;;;;;;;12305325;29;20039;-78
2022/04/20 02:34:56;;;;;;;1.45;0.60;;;;;;;;;;12287703;29;20539;-78
2022/04/20 02:40:58;;;;;;;1.40;0.40;;;;;;;;;;12287537;29;20058;-78
2022/04/20 02:47:00;;;;;;;1.55;0.40;;;;;;;;;;12304238;29;20035;-77
2022/04/20 02:53:02;;;;;;;0.30;0.30;;;;;;;;;;12304003;29;20031;-78
2022/04/20 02:59:06;;;;;;;0.63;0.40;;;;;;;;;;12286371;28;20043;-78
2022/04/20 03:05:11;;;;;;;0.32;0.32;;;;;;;;;;12303943;29;20047;-78
2022/04/20 03:11:13;;;;;;;0.80;0.80;;;;;;;;;;12297769;28;20515;-77
2022/04/20 03:17:17;;;;;;;1.33;0.73;;;;;;;;;;12286234;29;20404;-77
2022/04/20 03:23:19;;;;;;;0.57;0.53;;;;;;;;;;12286144;29;20497;-78
2022/04/20 03:29:25;;;;;;;0.73;0.50;;;;;;;;;;12286318;29;20119;-77
2022/04/20 03:35:28;;;;;;;0.73;0.43;;;;;;;;;;12296900;28;20055;-77
2022/04/20 03:41:29;;;;;;;0.60;0.60;;;;;;;;;;12285540;29;20401;-77
2022/04/20 03:47:31;;;;;;;0.20;0.20;;;;;;;;;;12301703;29;20046;-77
2022/04/20 03:53:33;;;;;;;0.40;0.40;;;;;;;;;;12313378;28;20046;-77
2022/04/20 03:59:37;;;;;;;0.70;0.70;;;;;;;;;;12285136;29;20493;-77
2022/04/20 04:05:40;;;;;;;1.27;1.27;;;;;;;;;;12285403;29;20047;-77
2022/04/20 04:11:52;;;;;;;1.25;1.25;;;;;;;;;;12286009;29;20038;-78
2022/04/20 04:17:58;;;;;;;1.33;1.30;;;;;;;;;;12284360;29;20051;-77
2022/04/20 04:24:04;;;;;;;2.08;1.98;;;;;;;;;;12284677;29;20046;-78
2022/04/20 04:30:08;;;;;;;1.42;1.33;;;;;;;;;;12295803;28;20430;-77
2022/04/20 04:36:36;;;;;;;0.82;0.82;;;;;;;;;;12286239;29;20062;-78
2022/04/20 04:42:38;;;;;;;0.75;0.75;;;;;;;;;;12285645;29;20043;-77
2022/04/20 04:48:40;;;;;;;0.50;0.50;;;;;;;;;;12283160;29;20062;-78
2022/04/20 04:54:48;;;;;;;0.50;0.50;;;;;;;;;;12283229;29;20043;-77
2022/04/20 05:00:52;;;;;;;0.50;0.50;;;;;;;;;;12295196;28;20035;-77
2022/04/20 05:07:01;;;;;;;0.28;0.28;;;;;;;;;;12283559;29;20046;-76
2022/04/20 05:13:12;;;;;;;0.40;0.40;;;;;;;;;;12282616;29;20046;-77
2022/04/20 05:19:14;;;;;;;0.80;0.80;;;;;;;;;;12282554;29;20043;-77
2022/04/20 05:25:17;;;;;;;0.60;0.60;;;;;;;;;;12286970;28;20039;-77
2022/04/20 05:31:20;;;;;;;0.55;0.55;;;;;;;;;;12290842;29;20038;-77
2022/04/20 05:43:43;;;;;;;0.57;0.50;;;;;;;;;;12299532;28;20039;-76
2022/04/20 05:49:47;;;;;;;0.52;0.52;;;;;;;;;;12278825;28;20040;-76
2022/04/20 05:55:50;;;;;;;0.57;0.57;;;;;;;;;;12274561;29;20043;-77
2022/04/20 06:01:51;;;;;;;0.40;0.40;;;;;;;;;;12286358;28;20038;-77
2022/04/20 06:07:55;;;;;;;0.70;0.52;;;;;;;;;;12285255;28;20043;-76
2022/04/20 06:14:11;;;;;;;0.57;0.50;;;;;;;;;;12272859;29;20385;-78
2022/04/20 06:20:25;;;;;;;0.88;0.50;;;;;;;;;;12276669;28;20347;-79
2022/04/20 06:26:38;;;;;;;0.60;0.40;;;;;;;;;;12270134;29;20120;-76
2022/04/20 06:33:18;;;;;;;0.60;0.50;;;;;;;;;;12265485;28;20062;-76
2022/04/20 06:39:28;;;;;;;0.38;0.38;;;;;;;;;;12286836;28;20047;-76
2022/04/20 06:46:03;;;;;;;0.50;0.50;;;;;;;;;;12240690;28;20043;-76
2022/04/20 06:58:44;;;;;;;1.10;0.43;;;;;;;;;;12273194;28;20050;-76
2022/04/20 07:04:57;;;;;;;0.47;0.47;;;;;;;;;;12280128;28;20036;-77
2022/04/20 07:11:15;;;;;;;0.50;0.50;;;;;;;;;;12268343;28;20050;-77
2022/04/20 07:17:18;;;;;;;0.93;0.70;;;;;;;;;;12275080;28;20047;-77
2022/04/20 07:23:30;;;;;;;0.40;0.40;;;;;;;;;;12270633;28;20046;-76
2022/04/20 07:29:36;;;;;;;0.55;0.55;;;;;;;;;;12261621;28;20058;-76
2022/04/20 07:36:04;;;;;;;0.60;0.60;;;;;;;;;;12293095;28;20042;-76
2022/04/20 07:42:25;;;;;;;0.65;0.50;;;;;;;;;;12265745;28;20051;-76
2022/04/20 07:48:45;;;;;;;0.52;0.50;;;;;;;;;;12261368;28;20035;-77
2022/04/20 07:55:18;;;;;;;0.32;0.32;;;;;;;;;;12270620;28;20049;-77
2022/04/20 08:01:26;;;;;;;0.50;0.50;;;;;;;;;;12265561;28;20043;-76
2022/04/20 08:07:28;;;;;;;1.73;0.60;;;;;;;;;;12283450;28;20022;-76
2022/04/20 08:20:17;;;;;;;0.80;0.60;;;;;;;;;;12266533;28;20047;-77
2022/04/20 08:26:28;;;;;;;0.98;0.50;;;;;;;;;;12266640;29;20047;-79
2022/04/20 08:32:30;;;;;;;1.00;0.47;;;;;;;;;;12276479;28;20501;-78
2022/04/20 08:38:32;;;;;;;4.13;0.68;;;;;;;;;;12263279;29;20058;-77
2022/04/20 08:44:41;;;;;;;0.50;0.50;;;;;;;;;;12271674;29;20044;-81
2022/04/20 08:50:43;;;;;;;0.40;0.40;;;;;;;;;;12277579;28;20032;-78
2022/04/20 09:03:06;;;;;;;0.28;0.28;;;;;;;;;;12296045;28;20047;-77
2022/04/20 09:09:08;;;;;;;0.80;0.40;;;;;;;;;;12277757;28;20031;-82
2022/04/20 09:15:11;;;;;;;0.40;0.40;;;;;;;;;;12266585;28;20055;-78
2022/04/20 09:21:15;;;;;;;0.75;0.43;;;;;;;;;;12284722;28;20503;-81
2022/04/20 09:27:16;;;;;;;0.50;0.40;;;;;;;;;;12276459;28;20036;-78
2022/04/20 09:33:18;;;;;;;0.63;0.35;;;;;;;;;;12260286;28;20035;-78
2022/04/20 09:39:21;;;;;;;0.50;0.45;;;;;;;;;;12262552;28;20062;-77
2022/04/20 09:45:23;;;;;;;0.77;0.77;;;;;;;;;;12283221;28;20020;-77
2022/04/20 09:51:35;;;;;;;0.47;0.47;;;;;;;;;;12276517;29;20031;-77
2022/04/20 09:57:37;;;;;;;1.17;0.60;;;;;;;;;;12272357;29;20047;-76
2022/04/20 10:03:39;;;;;;;0.57;0.45;;;;;;;;;;12271035;29;20039;-77
2022/04/20 10:09:43;;;;;;;0.98;0.75;;;;;;;;;;12288782;28;20485;-77
2022/04/20 10:22:08;;;;;;;0.53;0.43;;;;;;;;;;12288927;29;20024;-77
2022/04/20 10:28:19;;;;;;;0.63;0.43;;;;;;;;;;12289920;28;20036;-75
2022/04/20 10:34:21;;;;;;;0.40;0.40;;;;;;;;;;12262285;29;20047;-77
2022/04/20 10:40:43;;;;;;;;;;;;;;;;;;12256171;29;20059;-76
2022/04/20 10:47:04;;;;;;;1.45;0.43;;;;;;;;;;12275320;28;19930;-77
2022/04/20 10:53:22;;;;;;;0.57;0.55;;;;;;;;;;12272726;29;20035;-75
2022/04/20 10:59:26;;;;;;;0.63;0.20;;;;;;;;;;12267453;29;20058;-77
2022/04/20 11:05:27;;;;;;;0.57;0.40;;;;;;;;;;12260440;28;20043;-77
2022/04/20 11:25:06;;;;;;;1.67;0.50;;;;;;;;;;12271765;28;20043;-75
2022/04/20 11:31:09;;;;;;;0.20;0.20;;;;;;;;;;12314279;28;20047;-76
2022/04/20 11:37:11;;;;;;;0.90;0.47;;;;;;;;;;12297572;29;20043;-75
2022/04/20 11:43:14;;;;;;;0.82;0.50;;;;;;;;;;12301576;29;20062;-75
2022/04/20 11:49:16;;;;;;;0.40;0.30;;;;;;;;;;12283818;29;20431;-75
2022/04/20 11:55:22;;;;;;;0.75;0.40;;;;;;;;;;12284073;29;20047;-75
2022/04/20 12:01:25;;;;;;;1.13;0.63;;;;;;;;;;12284074;29;20035;-75
2022/04/20 12:07:26;;;;;;;1.92;0.98;;;;;;;;;;12303444;29;20046;-75
2022/04/20 12:13:29;;;;;;;0.43;0.43;;;;;;;;;;12283196;29;20035;-75
2022/04/20 12:19:32;;;;;;;0.82;0.60;;;;;;;;;;12300385;29;20050;-75
2022/04/20 12:25:33;;;;;;;0.95;0.80;;;;;;;;;;12297546;28;20040;-75
2022/04/20 12:31:38;;;;;;;1.20;0.60;;;;;;;;;;12284083;28;20031;-75
2022/04/20 12:37:41;;;;;;;0.47;0.40;;;;;;;;;;12311071;29;20051;-75
2022/04/20 12:43:54;;;;;;;0.55;0.55;;;;;;;;;;12293465;29;20448;-75
2022/04/20 12:50:04;;;;;;;0.85;0.40;;;;;;;;;;12292447;29;20047;-75
2022/04/20 13:02:27;;;;;;;0.40;0.40;;;;;;;;;;12309013;28;20035;-75
2022/04/20 13:08:29;;;;;;;1.10;0.43;;;;;;;;;;12291646;29;20039;-76
2022/04/20 13:14:31;;;;;;;0.90;0.47;;;;;;;;;;12308722;29;20283;-75
2022/04/20 13:20:33;;;;;;;0.65;0.55;;;;;;;;;;12291022;29;20035;-76
2022/04/20 13:32:57;;;;;;;0.52;0.47;;;;;;;;;;12307940;29;20035;-75
2022/04/20 13:38:58;;;;;;;0.50;0.50;;;;;;;;;;12309041;29;20055;-76
2022/04/20 13:45:00;;;;;;;0.63;0.30;;;;;;;;;;12318633;28;20035;-76
2022/04/20 13:51:02;;;;;;;0.77;0.33;;;;;;;;;;12289657;29;20821;-76
2022/04/20 13:57:04;;;;;;;1.20;0.50;;;;;;;;;;12289301;29;20047;-76
2022/04/20 14:03:05;;;;;;;0.23;0.23;;;;;;;;;;12289050;28;20050;-76
2022/04/20 14:09:07;;;;;;;0.57;0.30;;;;;;;;;;12288771;29;20330;-76
2022/04/20 14:15:09;;;;;;;0.37;0.30;;;;;;;;;;12288559;29;20139;-76
2022/04/20 14:21:13;;;;;;;0.70;0.32;;;;;;;;;;12305487;29;20039;-76
2022/04/20 14:33:35;;;;;;;0.63;0.40;;;;;;;;;;12288000;29;20039;-76
2022/04/20 14:39:38;;;;;;;0.40;0.40;;;;;;;;;;12287312;29;20050;-75
2022/04/20 14:45:39;;;;;;;0.63;0.30;;;;;;;;;;12318365;28;20481;-76
2022/04/20 14:51:44;;;;;;;1.20;0.45;;;;;;;;;;12286740;29;20035;-76
2022/04/20 14:57:46;;;;;;;0.40;0.40;;;;;;;;;;12285733;28;20051;-76
2022/04/20 15:03:47;;;;;;;0.40;0.40;;;;;;;;;;12314975;28;20027;-76
2022/04/20 15:09:49;;;;;;;0.50;0.50;;;;;;;;;;12305715;28;20038;-76
2022/04/20 15:15:51;;;;;;;0.40;0.40;;;;;;;;;;12302645;29;20054;-75
2022/04/20 15:21:53;;;;;;;0.40;0.40;;;;;;;;;;12304131;29;20031;-75
2022/04/20 15:27:55;;;;;;;0.53;0.43;;;;;;;;;;12285748;29;20038;-75
2022/04/20 15:34:04;;;;;;;0.65;0.50;;;;;;;;;;12664320;27;20141;-76
2022/04/20 15:40:06;;;;;;;0.47;0.47;;;;;;;;;;12637250;28;20032;-76
2022/04/20 15:46:08;;;;;;;;;;;;;;;;;;12619469;28;20031;-76
2022/04/20 15:52:09;;;;;;;0.40;0.40;;;;;;;;;;12636656;28;19923;-77
2022/04/20 16:04:36;;;;;;;0.60;0.50;;;;;;;;;;12648381;28;20036;-76
2022/04/20 16:10:38;;;;;;;0.75;0.50;;;;;;;;;;12635664;28;20051;-81
2022/04/20 16:16:42;;;;;;;0.60;0.60;;;;;;;;;;12651321;28;20385;-78
2022/04/20 16:22:45;;;;;;;0.30;0.25;;;;;;;;;;12652390;28;20037;-75
2022/04/20 16:28:47;;;;;;;0.90;0.60;;;;;;;;;;12641091;28;20071;-77
2022/04/20 16:34:52;;;;;;;1.17;0.83;;;;;;;;;;12634689;28;20566;-76
2022/04/20 16:40:55;;;;;;;1.02;0.60;;;;;;;;;;12624477;28;20025;-78
2022/04/20 16:46:57;;;;;;;0.47;0.40;;;;;;;;;;12600324;28;20047;-76
2022/04/20 16:52:58;;;;;;;0.87;0.53;;;;;;;;;;12600411;28;20044;-75
2022/04/20 16:59:00;;;;;;;0.83;0.40;;;;;;;;;;12598866;28;20295;-79
2022/04/20 17:05:02;;;;;;;0.60;0.60;;;;;;;;;;12599969;28;20036;-75
2022/04/20 17:11:05;;;;;;;1.65;0.80;;;;;;;;;;12580925;28;20059;-75
2022/04/20 17:17:06;;;;;;;1.00;0.90;;;;;;;;;;12599758;28;20032;-79
2022/04/20 17:29:29;;;;;;;3.50;2.78;;;;;;;;;;12597048;28;20057;-77
2022/04/20 17:41:52;;;;;;;1.92;1.30;;;;;;;;;;12597583;28;20044;-78
2022/04/20 17:47:54;;;;;;;1.88;1.40;;;;;;;;;;12596333;28;20107;-76
2022/04/20 17:53:56;;;;;;;2.93;1.57;;;;;;;;;;12597353;28;20052;-76
2022/04/20 17:59:57;;;;;;;2.35;1.77;;;;;;;;;;12596045;28;20041;-79
2022/04/20 18:06:00;;;;;;;1.90;1.53;;;;;;;;;;12579230;28;20037;-79
2022/04/20 18:12:02;;;;;;;2.42;1.92;;;;;;;;;;12594955;28;20040;-79
2022/04/20 18:18:04;;;;;;;2.30;1.80;;;;;;;;;;12595897;28;20036;-78
2022/04/20 18:24:07;;;;;;;2.87;1.47;;;;;;;;;;12594682;28;20029;-77
2022/04/20 18:30:09;;;;;;;2.95;1.63;;;;;;;;;;12608560;28;20056;-78
2022/04/20 18:36:12;;;;;;;1.93;1.67;;;;;;;;;;12593857;28;20033;-79
2022/04/20 18:42:14;;;;;;;2.33;1.95;;;;;;;;;;12593806;28;20366;-79
2022/04/20 18:48:16;;;;;;;2.42;2.17;;;;;;;;;;12594786;28;20524;-81
2022/04/20 19:00:39;;;;;;;3.28;2.45;;;;;;;;;;12593698;28;20044;-82
2022/04/20 19:06:40;;;;;;;1.85;1.75;;;;;;;;;;12611666;28;20055;-82
2022/04/20 19:12:42;;;;;;;1.65;1.55;;;;;;;;;;12596441;28;20489;-83
2022/04/20 19:18:44;;;;;;;2.20;2.00;;;;;;;;;;12592916;28;20028;-80
2022/04/20 19:24:45;;;;;;;2.63;2.42;;;;;;;;;;12592553;28;20032;-81
2022/04/20 19:30:48;;;;;;;4.30;3.90;;;;;;;;;;12575512;28;20060;-84
2022/04/20 19:36:50;;;;;;;;;;;;;;;;;;12593891;28;20024;-77
2022/04/20 19:42:53;;;;;;;2.85;2.65;;;;;;;;;;12591822;28;19909;-79
2022/04/20 19:48:56;;;;;;;2.63;2.10;;;;;;;;;;12600631;28;20040;-78
2022/04/20 19:54:59;;;;;;;2.03;1.90;;;;;;;;;;12609141;28;20037;-79
2022/04/20 20:01:01;;;;;;;;;;;;;;;;;;12592998;28;20497;-78
2022/04/20 20:07:02;;;;;;;2.60;2.10;;;;;;;;;;12591913;28;19908;-78
2022/04/20 20:13:05;;;;;;;1.67;1.50;;;;;;;;;;12592956;28;20044;-78
2022/04/20 20:19:07;;;;;;;1.80;1.70;;;;;;;;;;12615146;28;20279;-81
2022/04/20 20:31:29;;;;;;;2.40;1.80;;;;;;;;;;12651854;28;20497;-78
2022/04/20 20:37:32;;;;;;;1.80;1.70;;;;;;;;;;12663386;28;20036;-79
2022/04/20 20:43:33;;;;;;;2.40;2.00;;;;;;;;;;12632959;28;20036;-78
2022/04/20 20:55:55;;;;;;;2.35;2.22;;;;;;;;;;12633030;28;20028;-77
2022/04/20 21:01:57;;;;;;;2.92;2.58;;;;;;;;;;12649691;28;20040;-77
2022/04/20 21:07:59;;;;;;;2.50;2.30;;;;;;;;;;12650315;28;20301;-77
2022/04/20 21:14:02;;;;;;;2.05;1.85;;;;;;;;;;12631619;28;20043;-77
2022/04/20 21:20:04;;;;;;;2.08;1.90;;;;;;;;;;12700182;28;20117;-78
2022/04/20 21:26:06;;;;;;;1.50;1.40;;;;;;;;;;12699825;28;20038;-78
2022/04/20 21:32:08;;;;;;;3.03;2.58;;;;;;;;;;12681457;28;20063;-78
2022/04/20 21:38:11;;;;;;;2.05;1.95;;;;;;;;;;12720522;28;20042;-78
2022/04/20 21:44:13;;;;;;;3.90;2.67;;;;;;;;;;12699262;28;20043;-78
2022/04/20 21:50:15;;;;;;;3.30;3.00;;;;;;;;;;12680397;28;20046;-78
2022/04/20 21:56:18;;;;;;;2.63;2.42;;;;;;;;;;12712784;28;20039;-78
2022/04/20 22:08:52;;;;;;;2.78;2.47;;;;;;;;;;12624939;28;20035;-78
2022/04/20 22:14:55;;;;;;;3.50;2.17;;;;;;;;;;12696705;28;20046;-78
2022/04/20 22:20:57;;;;;;;2.40;2.20;;;;;;;;;;12696057;28;20401;-78
2022/04/20 22:26:59;;;;;;;2.15;2.05;;;;;;;;;;12696924;28;20035;-78
2022/04/20 22:33:30;;;;;;;2.75;2.55;;;;;;;;;;12678682;28;20527;-78
2022/04/20 22:39:32;;;;;;;2.63;2.42;;;;;;;;;;12677790;28;20040;-78
2022/04/20 22:45:33;;;;;;;2.83;2.58;;;;;;;;;;12695250;28;20038;-78
2022/04/20 22:51:38;;;;;;;3.20;2.85;;;;;;;;;;12695444;28;20043;-78
2022/04/20 22:57:39;;;;;;;3.40;3.00;;;;;;;;;;12694964;28;20054;-78
2022/04/20 23:03:41;;;;;;;3.65;3.35;;;;;;;;;;12697152;28;20527;-78
2022/04/20 23:09:43;;;;;;;2.65;2.45;;;;;;;;;;12695291;28;20044;-78
2022/04/20 23:15:45;;;;;;;3.67;3.38;;;;;;;;;;12693964;28;20499;-78
2022/04/20 23:21:46;;;;;;;3.28;3.08;;;;;;;;;;12676625;28;20522;-78
2022/04/20 23:34:10;;;;;;;4.22;3.83;;;;;;;;;;12688006;28;20040;-78
2022/04/20 23:40:12;;;;;;;2.80;2.60;;;;;;;;;;12693457;28;20046;-78
2022/04/20 23:46:14;;;;;;;3.25;3.05;;;;;;;;;;12707277;28;20542;-78
2022/04/20 23:52:15;;;;;;;4.40;4.00;;;;;;;;;;12698091;28;20047;-78
2022/04/20 23:58:17;;;;;;;3.40;3.10;;;;;;;;;;12704205;28;20287;-78
